• Join FlightAware (Why Join?)
  • Login
  • US Flag 
01:16AM EST


 

Airport Tracker/Info


-or-


 

Live Flight TrackerFlight Track Log ✈ CPZ5718 ✈ 29-Jun-2013 ✈ KALB - KMSP

Flight Track Log - Related Links

Times and Time Zones

All times are in EDT time to prevent confusion due to time zone crossing. See the CPZ5718 flight status page for this flight to view local times or setup timezone preferences in your user account.

Time Position Orientation Groundspeed Altitude Reporting Facility
EDT Latitude Longitude Course Direction KTS MPH feet Rate Location/Type
07:07AM 42.7236 -73.8081 281° West 163 188 1,200  Level Boston Center
07:08AM 42.6878 -73.8439 216° Southwest 211 243 2,800 1,800 Climbing Boston Center
07:09AM 42.7472 -73.9244 315° West 241 277 6,300 2,100 Climbing Boston Center
07:10AM 42.8453 -74.4051 283° West  Level FlightAware Approximate
07:10AM 42.8128 -73.9994 320° Northwest 248 285 8,400  Level Boston Center
07:11AM 42.8822 -74.5489 324° Northwest  Level FlightAware Approximate
07:11AM 42.8806 -74.0750 321° Northwest 262 302 10,800  Level Boston Center
07:12AM 42.9044 -74.7033 281° West  Level FlightAware Approximate
07:12AM 42.9442 -74.1419 322° Northwest 306 352 12,100  Level Boston Center
07:13AM 43.0119 -74.2119 323° Northwest 336 387 13,600 1,500 Climbing Boston Center
07:14AM 43.0703 -74.3303 304° West 331 381 15,200 1,680 Climbing Boston Center
07:15AM 43.0803 -74.4756 275° West 337 388 17,000 1,740 Climbing Boston Center
07:16AM 43.0864 -74.6008 274° West 358 412 18,700 1,440 Climbing Boston Center
07:17AM 43.0942 -74.7347 275° West 364 419 19,900 1,200 Climbing Boston Center
07:18AM 43.1017 -74.8772 274° West 369 425 21,100 1,200 Climbing Boston Center
07:19AM 43.1089 -75.0225 274° West 381 438 22,400 1,380 Climbing Boston Center
07:20AM 43.1156 -75.1822 273° West 387 445 23,900 1,200 Climbing Boston Center
07:21AM 43.1228 -75.3189 274° West 376 433 24,900 960 Climbing Boston Center
07:22AM 43.1294 -75.4586 274° West 376 433 25,900 960 Climbing Boston Center
07:23AM 43.1339 -75.6069 272° West 376 433 26,900 900 Climbing Boston Center
07:24AM 43.1422 -75.7553 274° West 384 442 27,800 960 Climbing Boston Center
07:26AM 43.1333 -75.9833 267° West 400 460 29,500 900 Climbing Toronto Center
07:27AM 43.1592 -76.1569 282° West 404 465 30,400 900 Climbing Cleveland Center
07:28AM 43.1506 -76.3114 266° West 404 465 31,400 960 Climbing Cleveland Center
07:29AM 43.1392 -76.4603 264° West 404 465 32,400 900 Climbing Cleveland Center
07:30AM 43.1278 -76.6117 264° West 404 465 33,300 1,020 Climbing Cleveland Center
07:31AM 43.1122 -76.7719 262° West 403 464 34,500 1,020 Climbing Cleveland Center
07:32AM 43.0983 -76.9208 263° West 397 457 35,400 720 Climbing Cleveland Center
07:33AM 43.0861 -77.0636 263° West 392 451 36,000 300 Climbing Cleveland Center
07:34AM 43.0717 -77.2122 262° West 392 451 36,000  Level Cleveland Center
07:35AM 43.0575 -77.3667 263° West 397 457 36,000  Level Cleveland Center
07:36AM 43.0431 -77.5264 263° West 411 473 36,000  Level Cleveland Center
07:37AM 43.0283 -77.6833 263° West 416 479 36,000  Level Cleveland Center
07:38AM 43.0114 -77.8403 262° West 422 486 36,000  Level Cleveland Center
07:39AM 42.9961 -78.0000 263° West 427 491 36,000  Level Cleveland Center
07:40AM 42.9808 -78.1597 263° West 427 491 36,000  Level Cleveland Center
07:41AM 42.9633 -78.3164 261° West 427 491 36,000  Level Cleveland Center
07:42AM 42.9475 -78.4786 262° West 427 491 36,000  Level Cleveland Center
07:43AM 42.9358 -78.6378 264° West 427 491 36,000  Level Cleveland Center
07:44AM 42.9736 -78.7928 288° West 419 482 36,000  Level Cleveland Center
07:45AM 43.0167 -78.9000 299° West 430 495 36,000  Level Toronto Center
07:46AM 43.0500 -79.0333 289° West 430 495 36,000  Level Toronto Center
07:47AM 43.1000 -79.2000 292° West 430 495 36,000  Level Toronto Center
07:48AM 43.1500 -79.3667 292° West 430 495 36,000  Level Toronto Center
07:49AM 43.1833 -79.5000 289° West 430 495 36,000  Level Toronto Center
07:50AM 43.2167 -79.6833 284° West 430 495 36,000  Level Toronto Center
07:51AM 43.2500 -79.8167 289° West 430 495 36,000  Level Toronto Center
07:52AM 43.2833 -80.0000 284° West 430 495 36,000  Level Toronto Center
07:53AM 43.3167 -80.1333 289° West 430 495 36,000  Level Toronto Center
07:54AM 43.3500 -80.3167 284° West 430 495 36,000  Level Toronto Center
07:55AM 43.3667 -80.4667 279° West 430 495 36,000  Level Toronto Center
07:56AM 43.4000 -80.6167 287° West 430 495 36,000  Level Toronto Center
07:57AM 43.4333 -80.7833 285° West 430 495 36,000  Level Toronto Center
07:58AM 43.4500 -80.9500 278° West 430 495 36,000  Level Toronto Center
07:59AM 43.4833 -81.1000 287° West 430 495 36,000  Level Toronto Center
08:00AM 43.5167 -81.2667 285° West 430 495 36,000  Level Toronto Center
08:01AM 43.5500 -81.4333 285° West 440 506 36,000  Level Toronto Center
08:02AM 43.5833 -81.5833 287° West 430 495 36,000  Level Toronto Center
08:03AM 43.6000 -81.7500 278° West 430 495 36,000  Level Toronto Center
08:04AM 43.6333 -81.9167 286° West 440 506 36,000  Level Toronto Center
08:05AM 43.6500 -82.0833 278° West 430 495 36,000  Level Toronto Center
08:06AM 43.6833 -82.2333 287° West 430 495 36,000  Level Toronto Center
08:07AM 43.7167 -82.4000 286° West 430 495 36,000  Level Toronto Center
08:08AM 43.7500 -82.5667 286° West 430 495 36,000  Level Toronto Center
08:09AM 43.7714 -82.6867 284° West 434 499 36,000  Level Minneapolis Center
08:10AM 43.7983 -82.8492 283° West 435 501 36,000  Level Minneapolis Center
08:11AM 43.8306 -83.0444 283° West 436 502 36,000  Level Minneapolis Center
08:12AM 43.8581 -83.2056 283° West 434 499 36,000  Level Minneapolis Center
08:13AM 43.8842 -83.3664 283° West 432 497 36,000  Level Minneapolis Center
08:14AM 43.9081 -83.5086 283° West 431 496 36,000  Level Minneapolis Center
08:15AM 43.9400 -83.7067 283° West 438 504 36,000  Level Minneapolis Center
08:16AM 43.9656 -83.8736 282° West 442 509 36,000  Level Minneapolis Center
08:17AM 43.9917 -84.0408 282° West 444 511 36,000  Level Minneapolis Center
08:18AM 44.0167 -84.2036 282° West 435 501 36,000  Level Minneapolis Center
08:19AM 44.0417 -84.3661 282° West 431 496 36,000  Level Minneapolis Center
08:20AM 44.0664 -84.5278 282° West 428 493 36,000  Level Minneapolis Center
08:21AM 44.0903 -84.6925 281° West 433 498 36,000  Level Minneapolis Center
08:22AM 44.1156 -84.8558 282° West 433 498 36,000  Level Minneapolis Center
08:23AM 44.1400 -85.0189 282° West 432 497 36,000  Level Minneapolis Center
08:24AM 44.1631 -85.1828 281° West 431 496 36,000  Level Minneapolis Center
08:25AM 44.1867 -85.3464 281° West 431 496 36,000  Level Minneapolis Center
08:26AM 44.2144 -85.5419 281° West 430 495 36,000  Level Minneapolis Center
08:27AM 44.2369 -85.7061 281° West 430 495 36,000  Level Minneapolis Center
08:28AM 44.2592 -85.8700 281° West 430 495 36,000  Level Minneapolis Center
08:29AM 44.2822 -86.0328 281° West 426 490 36,000  Level Minneapolis Center
08:30AM 44.3056 -86.1992 281° West 432 497 36,000  Level Minneapolis Center
08:31AM 44.3275 -86.3653 281° West 433 498 36,000  Level Minneapolis Center
08:32AM 44.3456 -86.4997 281° West 437 503 36,000  Level Minneapolis Center
08:33AM 44.3706 -86.6947 280° West 426 490 36,000  Level Minneapolis Center
08:34AM 44.3906 -86.8581 280° West 425 489 36,000  Level Minneapolis Center
08:35AM 44.4114 -87.0200 280° West 424 488 36,000  Level Minneapolis Center
08:36AM 44.4347 -87.1936 281° West 431 496 36,000  Level Minneapolis Center
08:37AM 44.4528 -87.3494 279° West 430 495 36,000  Level Minneapolis Center
08:38AM 44.4733 -87.5158 280° West 431 496 36,000  Level Minneapolis Center
08:39AM 44.4983 -87.7161 280° West 435 501 36,000  Level Minneapolis Center
08:40AM 44.5153 -87.8494 280° West 435 501 36,000  Level Minneapolis Center
08:41AM 44.5350 -88.0225 279° West 433 498 36,000  Level Minneapolis Center
08:42AM 44.5581 -88.2206 279° West 441 507 36,000  Level Minneapolis Center
08:43AM 44.5775 -88.3894 279° West 441 507 36,000  Level Minneapolis Center
08:45AM 44.5981 -88.5558 280° West 436 502 36,000  Level Minneapolis Center
08:46AM 44.6164 -88.7239 279° West 437 503 36,000 -300 Level Minneapolis Center
08:47AM 44.6350 -88.8917 279° West 435 501 35,400 -660 Descending Minneapolis Center
08:48AM 44.6569 -89.0892 279° West 439 505 34,700 -720 Descending Minneapolis Center
08:49AM 44.6756 -89.2564 279° West 436 502 34,000 -660 Descending Minneapolis Center
08:50AM 44.6947 -89.4242 279° West 438 504 33,400 -660 Descending Minneapolis Center
08:51AM 44.7125 -89.5953 278° West 442 509 32,700 -660 Descending Minneapolis Center
08:52AM 44.7300 -89.7625 278° West 436 502 32,100 -360 Descending Minneapolis Center
08:53AM 44.7472 -89.9292 278° West 434 499 32,000 -60 Descending Minneapolis Center
08:54AM 44.7650 -90.0981 278° West 436 502 32,000  Level Minneapolis Center
08:55AM 44.7819 -90.2656 278° West 434 499 32,000  Level Minneapolis Center
08:56AM 44.8011 -90.4611 278° West 433 498 32,000  Level Minneapolis Center
08:57AM 44.8178 -90.6344 278° West 432 497 32,000  Level Minneapolis Center
08:58AM 44.8344 -90.8006 278° West 431 496 32,000 -60 Level Minneapolis Center
08:59AM 44.8500 -90.9672 278° West 432 497 31,900 -1,320 Descending Minneapolis Center
09:00AM 44.8653 -91.1350 277° West 433 498 29,400 -2,340 Descending Minneapolis Center
09:01AM 44.8811 -91.3036 278° West 435 501 27,200 -2,640 Descending Minneapolis Center
09:02AM 44.8953 -91.4664 277° West 426 490 24,100 -2,700 Descending Minneapolis Center
09:03AM 44.9225 -91.6167 284° West 406 467 21,700 -2,520 Descending Minneapolis Center
09:04AM 44.9522 -91.7636 286° West 392 451 19,000 -2,880 Descending Minneapolis Center
09:05AM 44.9831 -91.9322 285° West 373 429 15,900 -2,760 Descending Minneapolis Center
09:06AM 45.0097 -92.0694 285° West 361 415 13,400 -2,400 Descending Minneapolis Center
09:07AM 45.0325 -92.2014 284° West 350 403 11,100 -1,200 Descending Minneapolis Center
09:08AM 45.0469 -92.3000 282° West 331 381 11,000 -120 Descending Minneapolis Center
09:09AM 45.0183 -92.4508 255° West 331 381 10,900 -540 Descending Minneapolis Center
09:10AM 44.9669 -92.5522 234° Southwest 319 367 10,000 -1,260 Descending Minneapolis Center
09:11AM 44.9164 -92.6503 234° Southwest 311 358 8,400 -1,560 Descending Minneapolis Center
09:12AM 44.8669 -92.7467 234° Southwest 306 352 6,900 -1,620 Descending Minneapolis Center
09:13AM 44.8183 -92.8417 234° Southwest 300 345 5,100 -1,440 Descending Minneapolis Center
09:14AM 44.7981 -92.9617 257° West 269 310 4,000 -900 Descending Minneapolis Center
09:15AM 44.8150 -93.0406 287° West 212 244 3,300 -720 Descending Minneapolis Center